createdAt,value
2018-09-16T00:00:29.217Z,11.27
2018-09-16T00:01:29.172Z,11.26
2018-09-16T00:02:30.327Z,11.26
2018-09-16T00:03:49.800Z,11.27
2018-09-16T00:04:50.021Z,11.27
2018-09-16T00:05:50.022Z,11.29
2018-09-16T00:06:49.975Z,11.29
2018-09-16T00:07:50.039Z,11.26
2018-09-16T00:08:50.386Z,11.26
2018-09-16T00:09:50.664Z,11.25
2018-09-16T00:11:11.638Z,11.23
2018-09-16T00:12:12.011Z,11.23
2018-09-16T00:13:12.261Z,11.23
2018-09-16T00:14:12.489Z,11.22
2018-09-16T00:15:11.603Z,11.23
2018-09-16T00:16:32.659Z,11.23
2018-09-16T00:17:32.912Z,11.23
2018-09-16T00:18:32.913Z,11.19
2018-09-16T00:19:33.057Z,11.19
2018-09-16T00:20:33.308Z,11.22
2018-09-16T00:21:33.525Z,11.19
2018-09-16T00:22:33.204Z,11.22
2018-09-16T00:23:33.334Z,11.18
2018-09-16T00:24:33.375Z,11.17
2018-09-16T00:25:33.665Z,11.15
2018-09-16T00:26:33.065Z,11.17
2018-09-16T00:27:33.192Z,11.19
2018-09-16T00:28:33.491Z,11.22
2018-09-16T00:29:54.517Z,11.22
2018-09-16T00:30:54.525Z,11.18
2018-09-16T00:32:17.906Z,11.17
2018-09-16T00:33:18.412Z,11.14
2018-09-16T00:34:18.742Z,11.15
2018-09-16T00:35:17.807Z,11.14
2018-09-16T00:36:18.039Z,11.12
2018-09-16T00:37:18.120Z,11.14
2018-09-16T00:38:18.275Z,11.12
2018-09-16T00:39:18.435Z,11.11
2018-09-16T00:40:39.419Z,11.10
2018-09-16T00:41:39.616Z,11.05
2018-09-16T00:42:39.732Z,11.02
2018-09-16T00:43:39.731Z,10.99
2018-09-16T00:44:39.800Z,10.97
2018-09-16T00:45:45.477Z,10.94
2018-09-16T00:46:40.433Z,10.92
2018-09-16T00:48:00.753Z,10.92
2018-09-16T00:49:00.868Z,10.90
2018-09-16T00:50:01.195Z,10.87
2018-09-16T00:51:01.220Z,10.86
2018-09-16T00:52:01.376Z,10.84
2018-09-16T00:53:01.695Z,10.84
2018-09-16T00:54:00.938Z,10.84
2018-09-16T00:55:00.910Z,10.82
2018-09-16T00:56:01.145Z,10.78
2018-09-16T00:57:01.377Z,10.75
2018-09-16T00:58:00.726Z,10.74
2018-09-16T00:59:00.742Z,10.74
2018-09-16T01:00:00.926Z,10.76
2018-09-16T01:01:01.087Z,10.78
2018-09-16T01:02:01.571Z,10.79
2018-09-16T01:03:00.805Z,10.86
2018-09-16T01:04:00.845Z,10.89
2018-09-16T01:05:01.055Z,10.86
2018-09-16T01:06:01.080Z,10.81
2018-09-16T01:07:01.145Z,10.75
2018-09-16T01:08:01.520Z,10.69
2018-09-16T01:09:00.639Z,10.67
2018-09-16T01:10:01.661Z,10.64
2018-09-16T01:11:00.809Z,10.64
2018-09-16T01:12:00.845Z,10.63
2018-09-16T01:13:00.985Z,10.64
2018-09-16T01:14:01.055Z,10.64
2018-09-16T01:15:01.159Z,10.64
2018-09-16T01:16:01.317Z,10.64
2018-09-16T01:17:01.426Z,10.63
2018-09-16T01:18:21.430Z,10.60
2018-09-16T01:19:21.734Z,10.59
2018-09-16T01:20:21.921Z,10.59
2018-09-16T01:21:22.364Z,10.57
2018-09-16T01:22:21.477Z,10.59
2018-09-16T01:23:21.827Z,10.56
2018-09-16T01:24:43.062Z,10.54
2018-09-16T01:25:43.399Z,10.49
2018-09-16T01:26:43.509Z,10.51
2018-09-16T01:27:43.688Z,10.53
2018-09-16T01:29:04.900Z,10.56
2018-09-16T01:30:26.177Z,10.53
2018-09-16T01:31:26.370Z,10.54
2018-09-16T01:32:26.455Z,10.53
2018-09-16T01:33:26.515Z,10.51
2018-09-16T01:34:26.722Z,10.49
2018-09-16T01:35:26.977Z,10.48
2018-09-16T01:36:25.981Z,10.48
2018-09-16T01:37:26.372Z,10.44
2018-09-16T01:38:26.534Z,10.46
2018-09-16T01:39:26.526Z,10.42
2018-09-16T01:40:26.819Z,10.41
2018-09-16T01:41:27.818Z,10.44
2018-09-16T01:42:26.588Z,10.41
2018-09-16T01:43:26.853Z,10.41
2018-09-16T01:44:26.179Z,10.40
2018-09-16T01:45:26.496Z,10.38
2018-09-16T01:46:26.798Z,10.40
2018-09-16T01:47:26.775Z,10.38
2018-09-16T01:48:26.679Z,10.37
2018-09-16T01:49:26.848Z,10.35
2018-09-16T01:50:47.813Z,10.38
2018-09-16T01:51:47.956Z,10.44
2018-09-16T01:52:49.044Z,10.44
2018-09-16T01:53:48.419Z,10.44
2018-09-16T01:54:48.515Z,10.46
2018-09-16T01:55:48.770Z,10.44
2018-09-16T01:57:09.065Z,10.42
2018-09-16T01:58:09.320Z,10.42
2018-09-16T01:59:51.415Z,10.34
2018-09-16T02:00:51.505Z,10.35
2018-09-16T02:01:51.709Z,10.33
2018-09-16T02:02:52.005Z,10.31
2018-09-16T02:03:52.210Z,10.30
2018-09-16T02:04:51.514Z,10.28
2018-09-16T02:05:51.739Z,10.33
2018-09-16T02:06:52.664Z,10.34
2018-09-16T02:08:12.960Z,10.30
2018-09-16T02:09:12.859Z,10.31
2018-09-16T02:10:33.960Z,10.33
2018-09-16T02:11:34.296Z,10.35
2018-09-16T02:12:34.446Z,10.35
2018-09-16T02:13:34.893Z,10.34
2018-09-16T02:14:34.130Z,10.37
2018-09-16T02:15:34.108Z,10.38
2018-09-16T02:16:55.441Z,10.40
2018-09-16T02:18:16.756Z,10.42
2018-09-16T02:19:16.935Z,10.44
2018-09-16T02:20:38.264Z,10.42
2018-09-16T02:21:38.448Z,10.42
2018-09-16T02:22:38.684Z,10.40
2018-09-16T02:23:39.104Z,10.41
2018-09-16T02:24:38.264Z,10.44
2018-09-16T02:25:38.443Z,10.44
2018-09-16T02:26:38.861Z,10.41
2018-09-16T02:27:39.084Z,10.40
2018-09-16T02:28:38.326Z,10.42
2018-09-16T02:29:59.374Z,10.46
2018-09-16T02:30:59.592Z,10.44
2018-09-16T02:32:00.039Z,10.44
2018-09-16T02:33:00.020Z,10.44
2018-09-16T02:33:59.968Z,10.40
2018-09-16T02:35:00.767Z,10.38
2018-09-16T02:35:59.992Z,10.40
2018-09-16T02:37:00.146Z,10.38
2018-09-16T02:37:59.308Z,10.38
2018-09-16T02:38:59.479Z,10.37
2018-09-16T02:40:20.385Z,10.38
2018-09-16T02:41:21.442Z,10.38
2018-09-16T02:42:20.514Z,10.37
2018-09-16T02:44:02.652Z,10.41
2018-09-16T02:45:02.616Z,10.40
2018-09-16T02:46:02.847Z,10.41
2018-09-16T02:47:03.355Z,10.42
2018-09-16T02:48:03.499Z,10.44
2018-09-16T02:49:02.670Z,10.49
2018-09-16T02:50:02.862Z,10.51
2018-09-16T02:51:03.063Z,10.51
2018-09-16T02:52:24.209Z,10.53
2018-09-16T02:53:24.408Z,10.51
2018-09-16T02:54:24.733Z,10.49
2018-09-16T02:55:24.966Z,10.49
2018-09-16T02:56:25.393Z,10.51
2018-09-16T02:57:24.724Z,10.54
2018-09-16T02:58:45.977Z,10.54
2018-09-16T02:59:46.175Z,10.53
2018-09-16T03:01:07.469Z,10.54
2018-09-16T03:02:07.832Z,10.54
2018-09-16T03:03:29.145Z,10.56
2018-09-16T03:04:29.370Z,10.57
2018-09-16T03:05:29.539Z,10.56
2018-09-16T03:06:29.950Z,10.57
2018-09-16T03:07:29.079Z,10.60
2018-09-16T03:08:29.159Z,10.60
2018-09-16T03:09:50.438Z,10.64
2018-09-16T03:10:50.706Z,10.67
2018-09-16T03:11:50.865Z,10.69
2018-09-16T03:12:51.638Z,10.75
2018-09-16T03:13:51.140Z,10.75
2018-09-16T03:14:51.193Z,10.79
2018-09-16T03:15:51.026Z,10.81
2018-09-16T03:16:51.243Z,10.81
2018-09-16T03:17:51.386Z,10.82
2018-09-16T03:18:50.372Z,10.86
2018-09-16T03:19:50.713Z,10.87
2018-09-16T03:21:11.846Z,10.87
2018-09-16T03:22:12.013Z,10.87
2018-09-16T03:23:33.041Z,10.89
2018-09-16T03:24:33.274Z,10.90
2018-09-16T03:25:33.305Z,10.90
2018-09-16T03:27:16.814Z,10.94
2018-09-16T03:28:06.827Z,10.93
2018-09-16T03:29:06.899Z,10.93
2018-09-16T03:30:06.946Z,10.93
2018-09-16T03:31:07.210Z,10.92
2018-09-16T03:32:07.440Z,10.93
2018-09-16T03:33:06.565Z,10.92
2018-09-16T03:34:06.646Z,10.90
2018-09-16T03:35:06.985Z,10.90
2018-09-16T03:36:07.197Z,10.87
2018-09-16T03:37:07.277Z,10.87
2018-09-16T03:38:06.387Z,10.87
2018-09-16T03:39:06.588Z,10.87
2018-09-16T03:40:27.819Z,10.86
2018-09-16T03:41:28.024Z,10.84
2018-09-16T03:42:28.343Z,10.86
2018-09-16T03:43:28.545Z,10.82
2018-09-16T03:44:28.686Z,10.82
2018-09-16T03:45:28.187Z,10.81
2018-09-16T03:46:28.449Z,10.82
2018-09-16T03:47:28.670Z,10.82
2018-09-16T03:48:48.736Z,10.86
2018-09-16T03:49:49.015Z,10.87
2018-09-16T03:50:49.358Z,10.84
2018-09-16T03:52:30.489Z,10.79
2018-09-16T03:53:30.661Z,10.81
2018-09-16T03:54:30.916Z,10.81
2018-09-16T03:55:31.165Z,10.81
2018-09-16T03:56:30.629Z,10.79
2018-09-16T03:57:52.147Z,10.76
2018-09-16T03:59:13.532Z,10.76
2018-09-16T04:00:13.517Z,10.75
2018-09-16T04:01:13.735Z,10.76
2018-09-16T04:02:14.032Z,10.75
2018-09-16T04:03:14.503Z,10.78
2018-09-16T04:04:13.799Z,10.81
2018-09-16T04:05:13.892Z,10.81
2018-09-16T04:06:14.203Z,10.81
2018-09-16T04:07:15.734Z,10.81
2018-09-16T04:08:13.645Z,10.82
2018-09-16T04:09:13.943Z,10.84
2018-09-16T04:10:14.052Z,10.86
2018-09-16T04:11:35.002Z,10.90
2018-09-16T04:12:35.175Z,10.92
2018-09-16T04:13:35.206Z,10.92
2018-09-16T04:14:35.471Z,10.92
2018-09-16T04:15:35.819Z,10.93
2018-09-16T04:16:35.074Z,10.93
2018-09-16T04:17:56.177Z,10.94
2018-09-16T04:19:17.716Z,10.94
2018-09-16T04:20:17.938Z,10.96
2018-09-16T04:21:18.101Z,10.96
2018-09-16T04:22:39.409Z,11.00
2018-09-16T04:24:00.860Z,11.02
2018-09-16T04:25:21.853Z,11.05
2018-09-16T04:26:22.069Z,11.05
2018-09-16T04:27:43.763Z,11.07
2018-09-16T04:28:43.951Z,11.08
2018-09-16T04:29:44.063Z,11.10
2018-09-16T04:30:44.357Z,11.11
2018-09-16T04:31:44.304Z,11.12
2018-09-16T04:32:44.588Z,11.12
2018-09-16T04:33:43.607Z,11.12
2018-09-16T04:34:43.801Z,11.14
2018-09-16T04:35:44.137Z,11.17
2018-09-16T04:36:44.299Z,11.17
2018-09-16T04:37:44.535Z,11.17
2018-09-16T04:38:43.879Z,11.17
2018-09-16T04:40:04.669Z,11.18
2018-09-16T04:41:05.104Z,11.22
2018-09-16T04:42:05.187Z,11.19
2018-09-16T04:43:05.597Z,11.19
2018-09-16T04:44:05.097Z,11.26
2018-09-16T04:45:05.454Z,11.27
2018-09-16T04:46:05.704Z,11.29
2018-09-16T04:47:04.887Z,11.32
2018-09-16T04:48:05.121Z,11.32
2018-09-16T04:49:05.315Z,11.30
2018-09-16T04:50:05.432Z,11.30
2018-09-16T04:51:46.564Z,11.29
2018-09-16T04:52:46.726Z,11.30
2018-09-16T04:54:08.065Z,11.32
2018-09-16T04:55:08.349Z,11.35
2018-09-16T04:56:08.621Z,11.32
2018-09-16T04:57:08.755Z,11.30
2018-09-16T04:58:09.002Z,11.30
2018-09-16T04:59:08.127Z,11.32
2018-09-16T05:00:08.477Z,11.32
2018-09-16T05:01:08.855Z,11.33
2018-09-16T05:02:28.935Z,11.35
2018-09-16T05:03:28.984Z,11.35
2018-09-16T05:04:29.218Z,11.35
2018-09-16T05:05:29.359Z,11.30
2018-09-16T05:06:29.478Z,11.30
2018-09-16T05:07:29.738Z,11.33
2018-09-16T05:08:49.777Z,11.32
2018-09-16T05:09:50.058Z,11.32
2018-09-16T05:10:50.266Z,11.33
2018-09-16T05:11:50.493Z,11.33
2018-09-16T05:12:50.781Z,11.33
2018-09-16T05:13:50.099Z,11.33
2018-09-16T05:14:50.514Z,11.33
2018-09-16T05:15:50.687Z,11.33
2018-09-16T05:16:49.968Z,11.32
2018-09-16T05:17:50.247Z,11.32
2018-09-16T05:18:50.411Z,11.35
2018-09-16T05:19:50.702Z,11.33
2018-09-16T05:21:10.751Z,11.33
2018-09-16T05:22:10.703Z,11.32
2018-09-16T05:23:10.692Z,11.32
2018-09-16T05:24:10.894Z,11.32
2018-09-16T05:25:32.195Z,11.30
2018-09-16T05:26:32.318Z,11.32
2018-09-16T05:27:32.588Z,11.32
2018-09-16T05:28:32.805Z,11.33
2018-09-16T05:29:54.001Z,11.35
2018-09-16T05:30:54.151Z,11.36
2018-09-16T05:31:54.526Z,11.37
2018-09-16T05:32:54.903Z,11.41
2018-09-16T05:33:54.131Z,11.41
2018-09-16T05:34:54.237Z,11.43
2018-09-16T05:35:54.725Z,11.43
2018-09-16T05:36:54.315Z,11.43
2018-09-16T05:37:54.440Z,11.44
2018-09-16T05:38:54.902Z,11.47
2018-09-16T05:39:54.063Z,11.48
2018-09-16T05:40:54.130Z,11.50
2018-09-16T05:41:54.637Z,11.51
2018-09-16T05:43:15.878Z,11.54
2018-09-16T05:44:15.894Z,11.55
2018-09-16T05:45:16.369Z,11.54
2018-09-16T05:46:37.628Z,11.60
2018-09-16T05:47:37.687Z,11.62
2018-09-16T05:48:37.932Z,11.63
2018-09-16T05:49:38.296Z,11.65
2018-09-16T05:50:37.540Z,11.65
2018-09-16T05:51:37.554Z,11.66
2018-09-16T05:52:37.999Z,11.66
2018-09-16T05:53:58.970Z,11.66
2018-09-16T05:54:59.235Z,11.66
2018-09-16T05:55:59.337Z,11.68
2018-09-16T05:56:59.413Z,11.68
2018-09-16T05:57:59.930Z,11.69
2018-09-16T05:58:59.101Z,11.69
2018-09-16T05:59:59.424Z,11.70
2018-09-16T06:00:59.728Z,11.70
2018-09-16T06:01:59.917Z,11.72
2018-09-16T06:02:59.268Z,11.72
2018-09-16T06:03:59.814Z,11.72
2018-09-16T06:05:00.140Z,11.75
2018-09-16T06:05:59.428Z,11.75
2018-09-16T06:06:59.626Z,11.77
2018-09-16T06:07:59.902Z,11.78
2018-09-16T06:08:59.198Z,11.80
2018-09-16T06:09:59.186Z,11.83
2018-09-16T06:10:59.416Z,11.86
2018-09-16T06:11:59.638Z,11.87
2018-09-16T06:13:00.015Z,11.87
2018-09-16T06:13:59.518Z,11.87
2018-09-16T06:14:59.880Z,11.88
2018-09-16T06:15:59.124Z,11.94
2018-09-16T06:16:59.268Z,11.94
2018-09-16T06:17:59.412Z,11.95
2018-09-16T06:18:59.743Z,11.99
2018-09-16T06:19:59.875Z,11.99
2018-09-16T06:20:59.238Z,12.00
2018-09-16T06:21:59.556Z,12.03
2018-09-16T06:22:59.605Z,12.07
2018-09-16T06:24:20.449Z,12.20
2018-09-16T06:25:20.776Z,12.32
2018-09-16T06:26:21.028Z,12.49
2018-09-16T06:27:21.308Z,12.65
2018-09-16T06:28:20.742Z,12.86
2018-09-16T06:29:41.990Z,13.12
2018-09-16T06:30:42.198Z,13.27
2018-09-16T06:31:42.536Z,13.46
2018-09-16T06:32:41.947Z,13.59
2018-09-16T06:33:42.424Z,13.71
2018-09-16T06:34:42.835Z,13.83
2018-09-16T06:35:42.240Z,13.92
2018-09-16T06:36:42.637Z,14.04
2018-09-16T06:37:41.959Z,14.14
2018-09-16T06:38:42.366Z,14.25
2018-09-16T06:39:42.676Z,14.43
2018-09-16T06:40:42.201Z,14.68
2018-09-16T06:41:42.660Z,14.92
2018-09-16T06:42:42.163Z,15.22
2018-09-16T06:43:42.363Z,15.55
2018-09-16T06:44:42.705Z,15.94
2018-09-16T06:45:42.357Z,16.33
2018-09-16T06:46:42.484Z,16.68
2018-09-16T06:47:42.709Z,16.99
2018-09-16T06:49:03.341Z,17.42
2018-09-16T06:50:03.723Z,17.68
2018-09-16T06:51:03.361Z,17.87
2018-09-16T06:52:03.837Z,18.07
2018-09-16T06:53:04.073Z,18.26
2018-09-16T06:54:24.632Z,18.52
2018-09-16T06:55:46.274Z,18.77
2018-09-16T06:56:47.902Z,18.89
2018-09-16T06:57:47.208Z,18.96
2018-09-16T06:58:46.789Z,18.99
2018-09-16T06:59:47.156Z,18.95
2018-09-16T07:00:46.946Z,18.93
2018-09-16T07:01:47.468Z,19.11
2018-09-16T07:02:47.033Z,19.36
2018-09-16T07:03:46.610Z,19.56
2018-09-16T07:04:47.169Z,19.67
2018-09-16T07:05:46.483Z,19.85
2018-09-16T07:06:47.198Z,20.07
2018-09-16T07:07:46.849Z,20.26
2018-09-16T07:08:47.202Z,20.55
2018-09-16T07:09:46.473Z,20.84
2018-09-16T07:10:46.784Z,21.05
2018-09-16T07:11:47.334Z,21.22
2018-09-16T07:12:46.803Z,21.43
2018-09-16T07:13:47.315Z,21.51
2018-09-16T07:14:47.917Z,21.57
2018-09-16T07:15:47.450Z,21.57
2018-09-16T07:16:47.133Z,21.36
2018-09-16T07:17:46.949Z,21.46
2018-09-16T07:19:08.086Z,21.79
2018-09-16T07:20:09.154Z,22.06
2018-09-16T07:21:10.159Z,22.28
2018-09-16T07:22:08.664Z,22.45
2018-09-16T07:23:08.189Z,22.62
2018-09-16T07:24:08.714Z,22.81
2018-09-16T07:25:07.868Z,22.88
2018-09-16T07:26:08.651Z,22.99
2018-09-16T07:27:08.282Z,22.87
2018-09-16T07:28:07.745Z,22.26
2018-09-16T07:29:08.365Z,22.22
2018-09-16T07:30:08.010Z,22.45
2018-09-16T07:31:08.390Z,22.65
2018-09-16T07:32:07.968Z,22.70
2018-09-16T07:33:08.942Z,22.32
2018-09-16T07:34:08.313Z,22.41
2018-09-16T07:35:29.662Z,22.20
2018-09-16T07:36:29.418Z,22.43
2018-09-16T07:37:30.190Z,22.75
2018-09-16T07:38:29.729Z,22.93
2018-09-16T07:39:51.165Z,23.31
2018-09-16T07:40:51.350Z,23.40
2018-09-16T07:41:51.751Z,23.41
2018-09-16T07:43:12.422Z,23.41
2018-09-16T07:44:55.226Z,23.44
2018-09-16T07:45:55.650Z,23.48
2018-09-16T07:46:56.142Z,23.61
2018-09-16T07:47:55.636Z,23.54
2018-09-16T07:49:17.316Z,23.47
2018-09-16T07:50:18.091Z,23.39
2018-09-16T07:51:17.421Z,23.58
2018-09-16T07:52:18.092Z,23.76
2018-09-16T07:53:17.642Z,23.83
2018-09-16T07:54:18.643Z,23.95
2018-09-16T07:55:40.361Z,23.58
2018-09-16T07:56:39.817Z,23.56
2018-09-16T07:57:39.428Z,23.68
2018-09-16T07:58:40.135Z,23.74
2018-09-16T07:59:39.482Z,23.50
2018-09-16T08:00:39.993Z,22.99
2018-09-16T08:01:39.740Z,22.83
2018-09-16T08:02:39.608Z,23.00
2018-09-16T08:03:41.112Z,23.12
2018-09-16T08:05:01.543Z,23.71
2018-09-16T08:06:02.213Z,24.08
2018-09-16T08:07:01.747Z,24.16
2018-09-16T08:08:03.135Z,24.11
2018-09-16T08:09:01.374Z,24.13
2018-09-16T08:10:01.917Z,24.29
2018-09-16T08:11:03.289Z,24.60
2018-09-16T08:12:01.781Z,25.08
2018-09-16T08:13:02.489Z,25.59
2018-09-16T08:14:01.847Z,25.88
2018-09-16T08:15:02.353Z,25.65
2018-09-16T08:16:01.833Z,25.69
2018-09-16T08:17:02.219Z,25.78
2018-09-16T08:18:01.996Z,25.63
2018-09-16T08:19:01.579Z,25.51
2018-09-16T08:20:02.112Z,25.35
2018-09-16T08:21:44.081Z,24.65
2018-09-16T08:22:45.263Z,24.33
2018-09-16T08:23:45.051Z,24.21
2018-09-16T08:24:44.436Z,23.87
2018-09-16T08:25:44.093Z,23.78
2018-09-16T08:26:44.875Z,23.56
2018-09-16T08:27:45.120Z,23.40
2018-09-16T08:28:45.037Z,23.31
2018-09-16T08:29:44.548Z,23.21
2018-09-16T08:30:45.091Z,23.27
2018-09-16T08:31:44.779Z,23.39
2018-09-16T08:32:44.472Z,23.48
2018-09-16T08:33:45.118Z,23.58
2018-09-16T08:34:44.843Z,23.56
2018-09-16T08:35:44.278Z,23.41
2018-09-16T08:36:44.981Z,23.54
2018-09-16T08:37:44.438Z,23.61
2018-09-16T08:38:44.809Z,23.54
2018-09-16T08:40:28.608Z,23.25
2018-09-16T08:41:28.731Z,23.15
2018-09-16T08:42:27.509Z,23.05
2018-09-16T08:43:27.789Z,22.83
2018-09-16T08:44:27.217Z,22.62
2018-09-16T08:45:27.882Z,22.54
2018-09-16T08:46:27.749Z,22.60
2018-09-16T08:47:48.529Z,22.33
2018-09-16T08:48:49.359Z,22.11
2018-09-16T08:49:48.942Z,22.18
2018-09-16T08:51:10.030Z,22.44
2018-09-16T08:52:10.762Z,22.59
2018-09-16T08:53:10.390Z,22.78
2018-09-16T08:54:30.965Z,23.13
2018-09-16T08:55:31.712Z,23.48
2018-09-16T08:56:31.960Z,23.48
2018-09-16T08:57:31.233Z,23.39
2018-09-16T08:58:31.582Z,23.58
2018-09-16T08:59:31.167Z,23.92
2018-09-16T09:00:31.567Z,24.29
2018-09-16T09:01:31.672Z,24.55
2018-09-16T09:02:31.722Z,24.70
2018-09-16T09:03:51.935Z,25.31
2018-09-16T09:04:53.042Z,25.75
2018-09-16T09:05:52.382Z,26.02
2018-09-16T09:07:35.468Z,25.80
2018-09-16T09:08:36.511Z,25.96
2018-09-16T09:09:59.003Z,26.33
2018-09-16T09:10:59.378Z,26.71
2018-09-16T09:12:00.320Z,26.95
2018-09-16T09:12:59.895Z,27.17
2018-09-16T09:13:59.416Z,27.52
2018-09-16T09:15:00.123Z,27.85
2018-09-16T09:15:59.494Z,28.22
2018-09-16T09:16:59.673Z,28.23
2018-09-16T09:17:59.092Z,28.19
2018-09-16T09:18:59.344Z,27.54
2018-09-16T09:19:59.687Z,27.18
2018-09-16T09:20:59.141Z,27.18
2018-09-16T09:21:59.557Z,27.32
2018-09-16T09:23:20.560Z,27.18
2018-09-16T09:24:20.906Z,27.33
2018-09-16T09:25:21.005Z,27.45
2018-09-16T09:26:20.310Z,27.64
2018-09-16T09:27:20.539Z,28.07
2018-09-16T09:28:19.984Z,28.42
2018-09-16T09:29:20.739Z,28.59
2018-09-16T09:30:20.313Z,28.57
2018-09-16T09:31:41.802Z,28.27
2018-09-16T09:32:42.019Z,28.30
2018-09-16T09:33:42.146Z,28.76
2018-09-16T09:34:42.799Z,29.42
2018-09-16T09:36:04.192Z,30.21
2018-09-16T09:37:04.413Z,30.03
2018-09-16T09:38:04.872Z,29.63
2018-09-16T09:39:03.966Z,29.86
2018-09-16T09:40:28.624Z,30.08
2018-09-16T09:41:28.673Z,30.24
2018-09-16T09:42:28.007Z,30.51
2018-09-16T09:43:27.361Z,30.39
2018-09-16T09:44:27.952Z,30.23
2018-09-16T09:45:27.351Z,30.25
2018-09-16T09:46:27.543Z,30.47
2018-09-16T09:47:27.877Z,30.12
2018-09-16T09:48:29.285Z,30.32
2018-09-16T09:49:48.859Z,30.84
2018-09-16T09:51:32.988Z,30.68
2018-09-16T09:52:32.470Z,30.80
2018-09-16T09:53:33.451Z,30.81
2018-09-16T09:54:32.800Z,30.73
2018-09-16T09:55:33.243Z,30.55
2018-09-16T09:56:32.326Z,30.70
2018-09-16T09:57:32.815Z,30.63
2018-09-16T09:58:33.094Z,30.25
2018-09-16T09:59:32.497Z,29.81
2018-09-16T10:00:32.675Z,29.51
2018-09-16T10:01:33.064Z,28.96
2018-09-16T10:02:32.260Z,28.47
2018-09-16T10:03:33.837Z,28.08
2018-09-16T10:04:33.175Z,27.70
2018-09-16T10:05:54.098Z,27.20
2018-09-16T10:06:54.557Z,26.96
2018-09-16T10:07:55.687Z,26.63
2018-09-16T10:08:54.172Z,26.45
2018-09-16T10:09:54.623Z,26.47
2018-09-16T10:11:39.512Z,27.45
2018-09-16T10:12:39.810Z,27.48
2018-09-16T10:13:40.099Z,27.33
2018-09-16T10:15:00.393Z,27.35
2018-09-16T10:16:00.689Z,27.42
2018-09-16T10:17:01.184Z,27.51
2018-09-16T10:18:00.589Z,27.90
2018-09-16T10:19:01.524Z,27.83
2018-09-16T10:20:00.995Z,27.40
2018-09-16T10:21:00.574Z,27.30
2018-09-16T10:22:00.848Z,27.05
2018-09-16T10:23:01.482Z,26.83
2018-09-16T10:24:01.114Z,26.40
2018-09-16T10:25:00.613Z,26.26
2018-09-16T10:26:00.668Z,26.26
2018-09-16T10:27:00.892Z,26.44
2018-09-16T10:28:01.279Z,26.89
2018-09-16T10:29:00.698Z,27.37
2018-09-16T10:30:01.155Z,27.83
2018-09-16T10:31:01.680Z,28.15
2018-09-16T10:32:01.619Z,28.39
2018-09-16T10:33:01.552Z,28.67
2018-09-16T10:34:02.093Z,28.96
2018-09-16T10:35:00.391Z,28.76
2018-09-16T10:36:00.843Z,28.59
2018-09-16T10:37:01.294Z,28.62
2018-09-16T10:38:00.692Z,28.86
2018-09-16T10:39:02.314Z,29.24
2018-09-16T10:40:00.764Z,29.17
2018-09-16T10:41:44.367Z,28.78
2018-09-16T10:42:44.755Z,28.42
2018-09-16T10:43:45.585Z,28.17
2018-09-16T10:44:45.405Z,27.86
2018-09-16T10:45:44.673Z,27.96
2018-09-16T10:46:46.079Z,28.20
2018-09-16T10:47:44.547Z,28.64
2018-09-16T10:48:44.967Z,28.97
2018-09-16T10:49:44.378Z,29.19
2018-09-16T10:50:44.857Z,28.97
2018-09-16T10:51:44.997Z,28.54
2018-09-16T10:52:44.345Z,28.59
2018-09-16T10:53:44.595Z,28.88
2018-09-16T10:54:44.945Z,29.19
2018-09-16T10:55:45.544Z,29.12
2018-09-16T10:56:45.530Z,29.17
2018-09-16T10:57:44.617Z,29.27
2018-09-16T10:58:45.148Z,29.47
2018-09-16T10:59:44.260Z,29.76
2018-09-16T11:00:44.712Z,30.00
2018-09-16T11:01:45.783Z,30.27
2018-09-16T11:02:44.491Z,30.51
2018-09-16T11:03:45.597Z,30.75
2018-09-16T11:05:06.232Z,31.06
2018-09-16T11:06:07.148Z,31.20
2018-09-16T11:07:06.353Z,30.75
2018-09-16T11:08:06.630Z,30.05
2018-09-16T11:09:07.023Z,29.76
2018-09-16T11:10:06.470Z,29.71
2018-09-16T11:11:06.985Z,29.72
2018-09-16T11:12:07.425Z,30.08
2018-09-16T11:13:28.208Z,30.46
2018-09-16T11:14:49.597Z,30.09
2018-09-16T11:15:49.966Z,29.93
2018-09-16T11:16:50.441Z,29.76
2018-09-16T11:18:11.405Z,29.79
2018-09-16T11:19:12.735Z,29.24
2018-09-16T11:20:12.363Z,29.27
2018-09-16T11:21:11.841Z,29.51
2018-09-16T11:22:12.321Z,29.68
2018-09-16T11:23:12.825Z,30.12
2018-09-16T11:24:12.184Z,30.57
2018-09-16T11:25:33.458Z,30.44
2018-09-16T11:26:34.799Z,30.48
2018-09-16T11:27:34.225Z,30.47
2018-09-16T11:28:33.511Z,30.43
2018-09-16T11:30:16.461Z,30.15
2018-09-16T11:31:16.860Z,30.09
2018-09-16T11:32:18.238Z,29.73
2018-09-16T11:33:38.375Z,29.69
2018-09-16T11:34:37.789Z,29.93
2018-09-16T11:36:00.702Z,30.13
2018-09-16T11:37:03.140Z,30.23
2018-09-16T11:38:00.761Z,30.53
2018-09-16T11:39:00.325Z,30.31
2018-09-16T11:40:00.568Z,30.32
2018-09-16T11:41:00.851Z,30.47
2018-09-16T11:42:00.598Z,30.77
2018-09-16T11:43:01.171Z,31.17
2018-09-16T11:44:00.602Z,31.39
2018-09-16T11:45:01.042Z,31.61
2018-09-16T11:46:21.695Z,31.46
2018-09-16T11:47:45.379Z,31.51
2018-09-16T11:48:43.820Z,31.54
2018-09-16T11:49:43.347Z,31.49
2018-09-16T11:50:43.759Z,31.28
2018-09-16T11:51:44.385Z,30.92
2018-09-16T11:52:44.030Z,30.72
2018-09-16T11:53:43.196Z,30.39
2018-09-16T11:54:43.811Z,30.13
2018-09-16T11:55:43.767Z,30.12
2018-09-16T11:56:44.303Z,30.12
2018-09-16T11:57:44.004Z,30.23
2018-09-16T11:58:43.454Z,30.40
2018-09-16T11:59:43.864Z,30.62
2018-09-16T12:01:04.752Z,30.80
2018-09-16T12:02:05.231Z,30.84
2018-09-16T12:03:05.316Z,30.81
2018-09-16T12:04:05.649Z,31.03
2018-09-16T12:05:05.068Z,31.07
2018-09-16T12:06:05.354Z,31.28
2018-09-16T12:07:05.066Z,31.52
2018-09-16T12:08:05.401Z,31.64
2018-09-16T12:09:04.687Z,31.10
2018-09-16T12:10:05.138Z,30.75
2018-09-16T12:11:06.672Z,30.68
2018-09-16T12:12:06.326Z,30.90
2018-09-16T12:13:05.777Z,30.88
2018-09-16T12:14:05.347Z,30.96
2018-09-16T12:15:25.749Z,31.24
2018-09-16T12:16:28.003Z,31.03
2018-09-16T12:17:26.591Z,31.36
2018-09-16T12:18:26.446Z,31.43
2018-09-16T12:19:26.816Z,31.56
2018-09-16T12:20:26.328Z,31.59
2018-09-16T12:21:47.812Z,31.61
2018-09-16T12:22:48.366Z,31.85
2018-09-16T12:23:47.669Z,31.99
2018-09-16T12:24:47.923Z,31.94
2018-09-16T12:25:48.356Z,31.97
2018-09-16T12:27:08.960Z,31.96
2018-09-16T12:28:30.922Z,32.12
2018-09-16T12:29:31.508Z,32.15
2018-09-16T12:30:30.997Z,32.22
2018-09-16T12:31:31.390Z,32.43
2018-09-16T12:32:31.627Z,32.55
2018-09-16T12:33:31.286Z,32.70
2018-09-16T12:34:31.785Z,32.86
2018-09-16T12:35:31.411Z,32.87
2018-09-16T12:36:30.704Z,32.58
2018-09-16T12:38:34.774Z,32.67
2018-09-16T12:39:35.106Z,32.63
2018-09-16T12:40:35.458Z,32.52
2018-09-16T12:41:35.438Z,32.45
2018-09-16T12:42:35.120Z,32.22
2018-09-16T12:43:36.337Z,31.96
2018-09-16T12:44:35.810Z,31.66
2018-09-16T12:45:35.253Z,31.52
2018-09-16T12:46:57.276Z,30.96
2018-09-16T12:48:20.138Z,30.92
2018-09-16T12:49:19.906Z,30.96
2018-09-16T12:50:19.406Z,31.07
2018-09-16T12:51:19.759Z,31.00
2018-09-16T12:52:19.091Z,30.99
2018-09-16T12:53:40.786Z,30.69
2018-09-16T12:54:41.445Z,30.53
2018-09-16T12:55:42.404Z,30.65
2018-09-16T12:56:42.311Z,30.91
2018-09-16T12:57:42.453Z,30.88
2018-09-16T12:58:41.659Z,30.80
2018-09-16T12:59:41.013Z,30.66
2018-09-16T13:00:41.595Z,30.69
2018-09-16T13:01:41.998Z,30.72
2018-09-16T13:02:41.427Z,30.57
2018-09-16T13:03:40.896Z,30.72
2018-09-16T13:04:41.364Z,30.81
2018-09-16T13:05:41.788Z,30.96
2018-09-16T13:06:41.850Z,31.00
2018-09-16T13:07:42.352Z,31.07
2018-09-16T13:08:41.942Z,30.92
2018-09-16T13:09:41.630Z,30.84
2018-09-16T13:10:41.177Z,30.35
2018-09-16T13:11:41.569Z,30.02
2018-09-16T13:12:41.195Z,30.12
2018-09-16T13:13:42.821Z,30.35
2018-09-16T13:14:41.249Z,30.25
2018-09-16T13:15:42.195Z,30.34
2018-09-16T13:16:41.608Z,30.12
2018-09-16T13:17:40.941Z,29.87
2018-09-16T13:18:41.469Z,29.63
2018-09-16T13:19:40.903Z,29.50
2018-09-16T13:20:41.061Z,29.50
2018-09-16T13:21:41.454Z,29.56
2018-09-16T13:22:41.053Z,29.65
2018-09-16T13:23:42.618Z,29.66
2018-09-16T13:25:03.009Z,29.49
2018-09-16T13:26:02.554Z,29.35
2018-09-16T13:27:03.856Z,29.45
2018-09-16T13:28:02.865Z,29.26
2018-09-16T13:29:24.201Z,29.19
2018-09-16T13:30:24.634Z,29.23
2018-09-16T13:31:24.251Z,29.12
2018-09-16T13:32:24.742Z,28.82
2018-09-16T13:33:24.021Z,28.66
2018-09-16T13:34:24.581Z,28.60
2018-09-16T13:35:25.183Z,28.59